sensor_id;sensor_type;location;lat;lon;timestamp;P1;durP1;ratioP1;P2;durP2;ratioP2
61358;SDS011;47228;46.762;23.598;2023-04-03T00:01:18;17.70;;;9.40;;
61358;SDS011;47228;46.762;23.598;2023-04-03T00:03:47;17.10;;;8.80;;
61358;SDS011;47228;46.762;23.598;2023-04-03T00:06:15;13.50;;;8.00;;
61358;SDS011;47228;46.762;23.598;2023-04-03T00:08:43;13.90;;;8.30;;
61358;SDS011;47228;46.762;23.598;2023-04-03T00:11:11;15.30;;;9.00;;
61358;SDS011;47228;46.762;23.598;2023-04-03T00:13:39;13.40;;;7.90;;
61358;SDS011;47228;46.762;23.598;2023-04-03T00:16:08;15.70;;;7.80;;
61358;SDS011;47228;46.762;23.598;2023-04-03T00:18:37;14.60;;;7.50;;
61358;SDS011;47228;46.762;23.598;2023-04-03T00:21:07;11.20;;;6.50;;
61358;SDS011;47228;46.762;23.598;2023-04-03T00:23:35;12.10;;;6.60;;
61358;SDS011;47228;46.762;23.598;2023-04-03T00:26:03;13.60;;;6.70;;
61358;SDS011;47228;46.762;23.598;2023-04-03T00:28:31;12.50;;;7.10;;
61358;SDS011;47228;46.762;23.598;2023-04-03T00:30:59;10.60;;;6.30;;
61358;SDS011;47228;46.762;23.598;2023-04-03T00:33:27;11.10;;;6.10;;
61358;SDS011;47228;46.762;23.598;2023-04-03T00:35:55;12.60;;;6.90;;
61358;SDS011;47228;46.762;23.598;2023-04-03T00:38:23;11.60;;;6.20;;
61358;SDS011;47228;46.762;23.598;2023-04-03T00:40:51;12.60;;;6.90;;
61358;SDS011;47228;46.762;23.598;2023-04-03T00:43:23;10.80;;;6.00;;
61358;SDS011;47228;46.762;23.598;2023-04-03T00:45:53;10.50;;;6.10;;
61358;SDS011;47228;46.762;23.598;2023-04-03T00:48:31;11.30;;;5.90;;
61358;SDS011;47228;46.762;23.598;2023-04-03T00:51:02;11.90;;;5.90;;
61358;SDS011;47228;46.762;23.598;2023-04-03T00:53:35;9.80;;;5.50;;
61358;SDS011;47228;46.762;23.598;2023-04-03T00:56:09;10.40;;;5.80;;
61358;SDS011;47228;46.762;23.598;2023-04-03T00:58:41;11.90;;;5.80;;
61358;SDS011;47228;46.762;23.598;2023-04-03T01:01:16;9.60;;;5.70;;
61358;SDS011;47228;46.762;23.598;2023-04-03T01:03:49;9.50;;;5.50;;
61358;SDS011;47228;46.762;23.598;2023-04-03T01:06:20;10.60;;;6.00;;
61358;SDS011;47228;46.762;23.598;2023-04-03T01:08:52;9.40;;;5.50;;
61358;SDS011;47228;46.762;23.598;2023-04-03T01:11:21;12.30;;;5.90;;
61358;SDS011;47228;46.762;23.598;2023-04-03T01:13:50;10.00;;;5.70;;
61358;SDS011;47228;46.762;23.598;2023-04-03T01:16:18;9.90;;;6.00;;
61358;SDS011;47228;46.762;23.598;2023-04-03T01:18:47;10.80;;;5.70;;
61358;SDS011;47228;46.762;23.598;2023-04-03T01:24:22;9.10;;;5.10;;
61358;SDS011;47228;46.762;23.598;2023-04-03T01:27:07;10.00;;;6.10;;
61358;SDS011;47228;46.762;23.598;2023-04-03T01:29:38;11.30;;;5.80;;
61358;SDS011;47228;46.762;23.598;2023-04-03T01:32:07;9.30;;;5.50;;
61358;SDS011;47228;46.762;23.598;2023-04-03T01:34:35;9.80;;;5.50;;
61358;SDS011;47228;46.762;23.598;2023-04-03T01:37:04;10.40;;;5.40;;
61358;SDS011;47228;46.762;23.598;2023-04-03T01:39:32;9.30;;;5.80;;
61358;SDS011;47228;46.762;23.598;2023-04-03T01:42:00;9.90;;;5.90;;
61358;SDS011;47228;46.762;23.598;2023-04-03T01:44:28;9.90;;;5.80;;
61358;SDS011;47228;46.762;23.598;2023-04-03T01:46:56;8.50;;;5.00;;
61358;SDS011;47228;46.762;23.598;2023-04-03T01:49:24;11.90;;;6.00;;
61358;SDS011;47228;46.762;23.598;2023-04-03T01:51:52;9.50;;;6.10;;
61358;SDS011;47228;46.762;23.598;2023-04-03T01:54:20;12.00;;;5.90;;
61358;SDS011;47228;46.762;23.598;2023-04-03T01:56:48;9.90;;;6.10;;
61358;SDS011;47228;46.762;23.598;2023-04-03T01:59:15;9.60;;;5.80;;
61358;SDS011;47228;46.762;23.598;2023-04-03T02:01:45;10.10;;;5.70;;
61358;SDS011;47228;46.762;23.598;2023-04-03T02:04:13;10.10;;;6.10;;
61358;SDS011;47228;46.762;23.598;2023-04-03T02:06:41;9.30;;;6.10;;
61358;SDS011;47228;46.762;23.598;2023-04-03T02:09:09;10.00;;;5.80;;
61358;SDS011;47228;46.762;23.598;2023-04-03T02:11:37;10.60;;;6.30;;
61358;SDS011;47228;46.762;23.598;2023-04-03T02:14:05;10.90;;;6.50;;
61358;SDS011;47228;46.762;23.598;2023-04-03T02:16:34;9.10;;;5.70;;
61358;SDS011;47228;46.762;23.598;2023-04-03T02:19:01;8.80;;;5.90;;
61358;SDS011;47228;46.762;23.598;2023-04-03T02:21:29;11.10;;;6.20;;
61358;SDS011;47228;46.762;23.598;2023-04-03T02:23:58;12.10;;;6.60;;
61358;SDS011;47228;46.762;23.598;2023-04-03T02:26:25;11.00;;;6.40;;
61358;SDS011;47228;46.762;23.598;2023-04-03T02:28:54;10.20;;;6.00;;
61358;SDS011;47228;46.762;23.598;2023-04-03T02:31:22;10.40;;;6.40;;
61358;SDS011;47228;46.762;23.598;2023-04-03T02:33:51;10.40;;;6.30;;
61358;SDS011;47228;46.762;23.598;2023-04-03T02:36:19;11.30;;;6.50;;
61358;SDS011;47228;46.762;23.598;2023-04-03T02:38:47;11.40;;;6.80;;
61358;SDS011;47228;46.762;23.598;2023-04-03T02:41:16;11.40;;;5.90;;
61358;SDS011;47228;46.762;23.598;2023-04-03T02:43:44;10.00;;;6.30;;
61358;SDS011;47228;46.762;23.598;2023-04-03T02:46:12;12.70;;;6.80;;
61358;SDS011;47228;46.762;23.598;2023-04-03T02:48:42;10.10;;;6.20;;
61358;SDS011;47228;46.762;23.598;2023-04-03T02:51:10;11.80;;;6.50;;
61358;SDS011;47228;46.762;23.598;2023-04-03T02:53:38;9.60;;;6.00;;
61358;SDS011;47228;46.762;23.598;2023-04-03T02:56:06;11.80;;;6.90;;
61358;SDS011;47228;46.762;23.598;2023-04-03T02:58:34;10.90;;;7.00;;
61358;SDS011;47228;46.762;23.598;2023-04-03T03:01:03;11.10;;;6.70;;
61358;SDS011;47228;46.762;23.598;2023-04-03T03:03:31;11.50;;;6.80;;
61358;SDS011;47228;46.762;23.598;2023-04-03T03:06:06;10.30;;;6.30;;
61358;SDS011;47228;46.762;23.598;2023-04-03T03:08:36;10.10;;;6.80;;
61358;SDS011;47228;46.762;23.598;2023-04-03T03:11:04;11.60;;;6.60;;
61358;SDS011;47228;46.762;23.598;2023-04-03T03:13:32;10.50;;;6.50;;
61358;SDS011;47228;46.762;23.598;2023-04-03T03:16:01;10.80;;;6.50;;
61358;SDS011;47228;46.762;23.598;2023-04-03T03:18:30;10.80;;;6.50;;
61358;SDS011;47228;46.762;23.598;2023-04-03T03:20:59;9.30;;;6.50;;
61358;SDS011;47228;46.762;23.598;2023-04-03T03:23:29;10.60;;;6.30;;
61358;SDS011;47228;46.762;23.598;2023-04-03T03:26:00;10.50;;;6.30;;
61358;SDS011;47228;46.762;23.598;2023-04-03T03:28:31;10.80;;;7.30;;
61358;SDS011;47228;46.762;23.598;2023-04-03T03:31:00;8.70;;;6.30;;
61358;SDS011;47228;46.762;23.598;2023-04-03T03:33:28;9.00;;;5.70;;
61358;SDS011;47228;46.762;23.598;2023-04-03T03:35:57;10.00;;;6.10;;
61358;SDS011;47228;46.762;23.598;2023-04-03T03:38:25;11.30;;;6.10;;
61358;SDS011;47228;46.762;23.598;2023-04-03T03:40:53;9.50;;;6.10;;
61358;SDS011;47228;46.762;23.598;2023-04-03T03:43:21;10.00;;;5.90;;
61358;SDS011;47228;46.762;23.598;2023-04-03T03:45:49;11.40;;;5.70;;
61358;SDS011;47228;46.762;23.598;2023-04-03T03:48:20;10.60;;;5.90;;
61358;SDS011;47228;46.762;23.598;2023-04-03T03:50:49;9.40;;;5.90;;
61358;SDS011;47228;46.762;23.598;2023-04-03T03:53:17;8.40;;;5.60;;
61358;SDS011;47228;46.762;23.598;2023-04-03T03:55:46;9.20;;;5.90;;
61358;SDS011;47228;46.762;23.598;2023-04-03T03:58:14;9.20;;;5.80;;
61358;SDS011;47228;46.762;23.598;2023-04-03T04:00:42;8.90;;;5.90;;
61358;SDS011;47228;46.762;23.598;2023-04-03T04:03:11;10.30;;;6.70;;
61358;SDS011;47228;46.762;23.598;2023-04-03T04:05:39;8.60;;;6.00;;
61358;SDS011;47228;46.762;23.598;2023-04-03T04:08:07;11.40;;;5.30;;
61358;SDS011;47228;46.762;23.598;2023-04-03T04:10:35;7.70;;;5.30;;
61358;SDS011;47228;46.762;23.598;2023-04-03T04:13:04;9.10;;;5.90;;
61358;SDS011;47228;46.762;23.598;2023-04-03T04:15:33;7.70;;;5.30;;
61358;SDS011;47228;46.762;23.598;2023-04-03T04:18:02;8.30;;;5.70;;
61358;SDS011;47228;46.762;23.598;2023-04-03T04:20:31;8.30;;;5.30;;
61358;SDS011;47228;46.762;23.598;2023-04-03T04:22:59;9.00;;;5.30;;
61358;SDS011;47228;46.762;23.598;2023-04-03T04:25:27;8.40;;;5.40;;
61358;SDS011;47228;46.762;23.598;2023-04-03T04:27:55;7.60;;;5.40;;
61358;SDS011;47228;46.762;23.598;2023-04-03T04:30:23;8.10;;;5.40;;
61358;SDS011;47228;46.762;23.598;2023-04-03T04:32:51;9.40;;;5.50;;
61358;SDS011;47228;46.762;23.598;2023-04-03T04:35:19;8.20;;;5.10;;
61358;SDS011;47228;46.762;23.598;2023-04-03T04:37:47;7.70;;;5.20;;
61358;SDS011;47228;46.762;23.598;2023-04-03T04:40:15;7.40;;;5.10;;
61358;SDS011;47228;46.762;23.598;2023-04-03T04:42:43;7.90;;;5.00;;
61358;SDS011;47228;46.762;23.598;2023-04-03T04:45:11;8.50;;;5.30;;
61358;SDS011;47228;46.762;23.598;2023-04-03T04:47:39;8.50;;;5.20;;
61358;SDS011;47228;46.762;23.598;2023-04-03T04:50:08;7.80;;;5.40;;
61358;SDS011;47228;46.762;23.598;2023-04-03T04:52:37;8.50;;;5.50;;
61358;SDS011;47228;46.762;23.598;2023-04-03T04:55:05;7.90;;;5.40;;
61358;SDS011;47228;46.762;23.598;2023-04-03T04:57:33;8.90;;;5.40;;
61358;SDS011;47228;46.762;23.598;2023-04-03T05:00:02;8.00;;;5.50;;
61358;SDS011;47228;46.762;23.598;2023-04-03T05:02:31;9.20;;;5.20;;
61358;SDS011;47228;46.762;23.598;2023-04-03T05:04:59;7.50;;;4.90;;
61358;SDS011;47228;46.762;23.598;2023-04-03T05:07:27;10.50;;;5.30;;
61358;SDS011;47228;46.762;23.598;2023-04-03T05:09:55;8.50;;;5.70;;
61358;SDS011;47228;46.762;23.598;2023-04-03T05:12:23;7.20;;;4.80;;
61358;SDS011;47228;46.762;23.598;2023-04-03T05:14:51;10.70;;;7.00;;
61358;SDS011;47228;46.762;23.598;2023-04-03T05:17:19;7.60;;;4.90;;
61358;SDS011;47228;46.762;23.598;2023-04-03T05:19:47;7.40;;;4.80;;
61358;SDS011;47228;46.762;23.598;2023-04-03T05:22:15;8.70;;;6.20;;
61358;SDS011;47228;46.762;23.598;2023-04-03T05:24:43;7.40;;;5.40;;
61358;SDS011;47228;46.762;23.598;2023-04-03T05:27:11;11.10;;;5.50;;
61358;SDS011;47228;46.762;23.598;2023-04-03T05:29:39;11.90;;;5.10;;
61358;SDS011;47228;46.762;23.598;2023-04-03T05:32:11;9.30;;;4.90;;
61358;SDS011;47228;46.762;23.598;2023-04-03T05:34:39;7.50;;;5.30;;
61358;SDS011;47228;46.762;23.598;2023-04-03T05:37:07;9.00;;;4.90;;
61358;SDS011;47228;46.762;23.598;2023-04-03T05:39:35;9.00;;;5.90;;
61358;SDS011;47228;46.762;23.598;2023-04-03T05:42:03;9.70;;;5.30;;
61358;SDS011;47228;46.762;23.598;2023-04-03T05:44:31;15.80;;;6.00;;
61358;SDS011;47228;46.762;23.598;2023-04-03T05:46:59;7.30;;;5.50;;
61358;SDS011;47228;46.762;23.598;2023-04-03T05:49:27;7.20;;;5.00;;
61358;SDS011;47228;46.762;23.598;2023-04-03T05:51:55;8.30;;;5.70;;
61358;SDS011;47228;46.762;23.598;2023-04-03T05:54:24;6.70;;;4.60;;
61358;SDS011;47228;46.762;23.598;2023-04-03T05:56:54;8.00;;;5.10;;
61358;SDS011;47228;46.762;23.598;2023-04-03T05:59:23;24.80;;;7.10;;
61358;SDS011;47228;46.762;23.598;2023-04-03T06:01:51;7.60;;;4.90;;
61358;SDS011;47228;46.762;23.598;2023-04-03T06:04:19;8.50;;;5.00;;
61358;SDS011;47228;46.762;23.598;2023-04-03T06:06:49;9.20;;;5.70;;
61358;SDS011;47228;46.762;23.598;2023-04-03T06:09:20;7.90;;;5.70;;
61358;SDS011;47228;46.762;23.598;2023-04-03T06:11:49;6.40;;;4.70;;
61358;SDS011;47228;46.762;23.598;2023-04-03T06:14:19;8.60;;;4.60;;
61358;SDS011;47228;46.762;23.598;2023-04-03T06:16:47;10.60;;;5.30;;
61358;SDS011;47228;46.762;23.598;2023-04-03T06:19:15;10.50;;;5.30;;
61358;SDS011;47228;46.762;23.598;2023-04-03T06:21:43;9.50;;;5.70;;
61358;SDS011;47228;46.762;23.598;2023-04-03T06:24:12;8.40;;;5.00;;
61358;SDS011;47228;46.762;23.598;2023-04-03T06:26:43;9.50;;;5.30;;
61358;SDS011;47228;46.762;23.598;2023-04-03T06:29:11;7.80;;;5.30;;
61358;SDS011;47228;46.762;23.598;2023-04-03T06:31:39;7.60;;;4.90;;
61358;SDS011;47228;46.762;23.598;2023-04-03T06:34:08;6.00;;;4.30;;
61358;SDS011;47228;46.762;23.598;2023-04-03T06:36:37;8.20;;;4.90;;
61358;SDS011;47228;46.762;23.598;2023-04-03T06:39:05;6.20;;;4.40;;
61358;SDS011;47228;46.762;23.598;2023-04-03T06:41:34;7.00;;;4.70;;
61358;SDS011;47228;46.762;23.598;2023-04-03T06:44:04;7.20;;;4.50;;
61358;SDS011;47228;46.762;23.598;2023-04-03T06:46:32;6.10;;;4.30;;
61358;SDS011;47228;46.762;23.598;2023-04-03T06:49:00;6.70;;;4.60;;
61358;SDS011;47228;46.762;23.598;2023-04-03T06:51:29;8.00;;;4.60;;
61358;SDS011;47228;46.762;23.598;2023-04-03T06:53:58;7.20;;;4.10;;
61358;SDS011;47228;46.762;23.598;2023-04-03T06:56:27;7.60;;;4.50;;
61358;SDS011;47228;46.762;23.598;2023-04-03T06:58:56;9.80;;;4.80;;
61358;SDS011;47228;46.762;23.598;2023-04-03T07:01:28;5.90;;;4.10;;
61358;SDS011;47228;46.762;23.598;2023-04-03T07:03:57;5.90;;;3.80;;
61358;SDS011;47228;46.762;23.598;2023-04-03T07:06:26;8.10;;;4.40;;
61358;SDS011;47228;46.762;23.598;2023-04-03T07:08:54;5.90;;;4.20;;
61358;SDS011;47228;46.762;23.598;2023-04-03T07:11:23;7.40;;;4.50;;
61358;SDS011;47228;46.762;23.598;2023-04-03T07:13:51;6.20;;;4.50;;
61358;SDS011;47228;46.762;23.598;2023-04-03T07:16:21;5.90;;;4.20;;
61358;SDS011;47228;46.762;23.598;2023-04-03T07:18:49;8.30;;;4.40;;
61358;SDS011;47228;46.762;23.598;2023-04-03T07:21:17;7.40;;;4.60;;
61358;SDS011;47228;46.762;23.598;2023-04-03T07:23:45;6.60;;;4.60;;
61358;SDS011;47228;46.762;23.598;2023-04-03T07:26:13;9.50;;;5.30;;
61358;SDS011;47228;46.762;23.598;2023-04-03T07:28:41;7.30;;;5.10;;
61358;SDS011;47228;46.762;23.598;2023-04-03T07:31:12;6.70;;;4.30;;
61358;SDS011;47228;46.762;23.598;2023-04-03T07:33:44;8.30;;;4.70;;
61358;SDS011;47228;46.762;23.598;2023-04-03T07:36:14;7.00;;;4.60;;
61358;SDS011;47228;46.762;23.598;2023-04-03T07:38:44;7.00;;;4.20;;
61358;SDS011;47228;46.762;23.598;2023-04-03T07:41:16;7.40;;;4.40;;
61358;SDS011;47228;46.762;23.598;2023-04-03T07:43:47;10.30;;;5.10;;
61358;SDS011;47228;46.762;23.598;2023-04-03T07:46:17;6.70;;;4.50;;
61358;SDS011;47228;46.762;23.598;2023-04-03T07:48:45;9.80;;;4.60;;
61358;SDS011;47228;46.762;23.598;2023-04-03T07:51:14;7.70;;;4.80;;
61358;SDS011;47228;46.762;23.598;2023-04-03T07:53:42;7.90;;;4.60;;
61358;SDS011;47228;46.762;23.598;2023-04-03T07:56:10;7.90;;;4.40;;
61358;SDS011;47228;46.762;23.598;2023-04-03T07:58:38;8.70;;;4.80;;
61358;SDS011;47228;46.762;23.598;2023-04-03T08:01:06;9.00;;;4.30;;
61358;SDS011;47228;46.762;23.598;2023-04-03T08:03:34;6.50;;;4.00;;
61358;SDS011;47228;46.762;23.598;2023-04-03T08:06:06;6.60;;;4.00;;
61358;SDS011;47228;46.762;23.598;2023-04-03T08:08:42;5.20;;;3.90;;
61358;SDS011;47228;46.762;23.598;2023-04-03T08:11:10;6.60;;;3.30;;
61358;SDS011;47228;46.762;23.598;2023-04-03T08:13:39;6.20;;;4.00;;
61358;SDS011;47228;46.762;23.598;2023-04-03T08:16:12;7.60;;;3.70;;
61358;SDS011;47228;46.762;23.598;2023-04-03T08:18:44;5.70;;;3.50;;
61358;SDS011;47228;46.762;23.598;2023-04-03T08:21:12;10.40;;;4.00;;
61358;SDS011;47228;46.762;23.598;2023-04-03T08:23:40;6.50;;;3.80;;
61358;SDS011;47228;46.762;23.598;2023-04-03T08:26:13;7.80;;;3.90;;
61358;SDS011;47228;46.762;23.598;2023-04-03T08:31:12;6.60;;;4.10;;
61358;SDS011;47228;46.762;23.598;2023-04-03T08:33:42;4.90;;;3.60;;
61358;SDS011;47228;46.762;23.598;2023-04-03T08:36:17;7.50;;;3.90;;
61358;SDS011;47228;46.762;23.598;2023-04-03T08:38:50;7.00;;;4.00;;
61358;SDS011;47228;46.762;23.598;2023-04-03T08:44:04;5.80;;;3.50;;
61358;SDS011;47228;46.762;23.598;2023-04-03T08:49:27;5.00;;;3.30;;
61358;SDS011;47228;46.762;23.598;2023-04-03T08:51:59;7.70;;;4.20;;
61358;SDS011;47228;46.762;23.598;2023-04-03T08:54:35;6.50;;;3.70;;
61358;SDS011;47228;46.762;23.598;2023-04-03T08:57:09;5.50;;;3.40;;
61358;SDS011;47228;46.762;23.598;2023-04-03T08:59:39;7.40;;;4.30;;
61358;SDS011;47228;46.762;23.598;2023-04-03T09:02:24;5.90;;;3.40;;
61358;SDS011;47228;46.762;23.598;2023-04-03T09:04:56;5.10;;;3.60;;
61358;SDS011;47228;46.762;23.598;2023-04-03T09:07:29;6.30;;;3.90;;
61358;SDS011;47228;46.762;23.598;2023-04-03T09:10:03;5.30;;;3.40;;
61358;SDS011;47228;46.762;23.598;2023-04-03T09:12:34;4.20;;;2.80;;
61358;SDS011;47228;46.762;23.598;2023-04-03T09:23:26;3.90;;;2.80;;
61358;SDS011;47228;46.762;23.598;2023-04-03T09:26:01;4.40;;;2.70;;
61358;SDS011;47228;46.762;23.598;2023-04-03T09:28:37;4.10;;;3.10;;
61358;SDS011;47228;46.762;23.598;2023-04-03T09:33:48;4.90;;;3.00;;
61358;SDS011;47228;46.762;23.598;2023-04-03T09:39:12;5.60;;;3.20;;
61358;SDS011;47228;46.762;23.598;2023-04-03T09:41:54;4.10;;;2.70;;
61358;SDS011;47228;46.762;23.598;2023-04-03T09:44:35;4.80;;;2.90;;
61358;SDS011;47228;46.762;23.598;2023-04-03T09:52:42;5.60;;;3.40;;
61358;SDS011;47228;46.762;23.598;2023-04-03T09:55:22;4.90;;;3.10;;
61358;SDS011;47228;46.762;23.598;2023-04-03T09:58:01;6.20;;;3.30;;
61358;SDS011;47228;46.762;23.598;2023-04-03T10:00:38;4.70;;;3.30;;
61358;SDS011;47228;46.762;23.598;2023-04-03T10:03:23;5.70;;;3.50;;
61358;SDS011;47228;46.762;23.598;2023-04-03T10:05:54;5.10;;;3.40;;
61358;SDS011;47228;46.762;23.598;2023-04-03T10:08:27;5.50;;;3.60;;
61358;SDS011;47228;46.762;23.598;2023-04-03T10:11:07;5.40;;;3.40;;
61358;SDS011;47228;46.762;23.598;2023-04-03T10:16:46;6.20;;;4.40;;
61358;SDS011;47228;46.762;23.598;2023-04-03T10:21:50;6.20;;;3.80;;
61358;SDS011;47228;46.762;23.598;2023-04-03T10:24:28;7.80;;;3.70;;
61358;SDS011;47228;46.762;23.598;2023-04-03T10:27:23;9.40;;;3.60;;
61358;SDS011;47228;46.762;23.598;2023-04-03T10:41:32;6.00;;;3.50;;
61358;SDS011;47228;46.762;23.598;2023-04-03T10:46:48;6.20;;;3.90;;
61358;SDS011;47228;46.762;23.598;2023-04-03T10:52:20;7.60;;;3.80;;
61358;SDS011;47228;46.762;23.598;2023-04-03T10:57:25;14.80;;;4.40;;
61358;SDS011;47228;46.762;23.598;2023-04-03T10:59:59;7.10;;;3.80;;
61358;SDS011;47228;46.762;23.598;2023-04-03T11:05:18;10.50;;;4.50;;
61358;SDS011;47228;46.762;23.598;2023-04-03T11:08:27;13.10;;;4.90;;
61358;SDS011;47228;46.762;23.598;2023-04-03T11:11:08;6.30;;;3.90;;
61358;SDS011;47228;46.762;23.598;2023-04-03T11:13:41;7.00;;;4.20;;
61358;SDS011;47228;46.762;23.598;2023-04-03T11:16:19;9.00;;;3.80;;
61358;SDS011;47228;46.762;23.598;2023-04-03T11:18:52;10.20;;;4.00;;
61358;SDS011;47228;46.762;23.598;2023-04-03T11:21:34;10.30;;;4.20;;
61358;SDS011;47228;46.762;23.598;2023-04-03T11:24:11;6.30;;;3.80;;
61358;SDS011;47228;46.762;23.598;2023-04-03T11:26:57;8.00;;;4.00;;
61358;SDS011;47228;46.762;23.598;2023-04-03T11:29:29;9.70;;;4.60;;
61358;SDS011;47228;46.762;23.598;2023-04-03T11:32:13;8.40;;;4.70;;
61358;SDS011;47228;46.762;23.598;2023-04-03T11:34:46;8.20;;;4.60;;
61358;SDS011;47228;46.762;23.598;2023-04-03T11:37:52;12.00;;;5.40;;
61358;SDS011;47228;46.762;23.598;2023-04-03T11:42:46;6.60;;;4.20;;
61358;SDS011;47228;46.762;23.598;2023-04-03T11:53:40;5.40;;;3.60;;
61358;SDS011;47228;46.762;23.598;2023-04-03T12:01:54;9.40;;;4.30;;
61358;SDS011;47228;46.762;23.598;2023-04-03T12:04:24;15.60;;;4.30;;
61358;SDS011;47228;46.762;23.598;2023-04-03T12:06:59;38.50;;;6.80;;
61358;SDS011;47228;46.762;23.598;2023-04-03T12:09:31;13.30;;;4.50;;
61358;SDS011;47228;46.762;23.598;2023-04-03T12:12:25;8.30;;;4.30;;
61358;SDS011;47228;46.762;23.598;2023-04-03T12:26:47;8.40;;;4.10;;
61358;SDS011;47228;46.762;23.598;2023-04-03T12:48:46;8.40;;;4.90;;
61358;SDS011;47228;46.762;23.598;2023-04-03T12:51:19;9.00;;;5.00;;
61358;SDS011;47228;46.762;23.598;2023-04-03T12:54:04;7.40;;;4.70;;
61358;SDS011;47228;46.762;23.598;2023-04-03T12:56:42;10.90;;;4.30;;
61358;SDS011;47228;46.762;23.598;2023-04-03T13:01:41;9.70;;;4.40;;
61358;SDS011;47228;46.762;23.598;2023-04-03T13:04:11;13.30;;;5.30;;
61358;SDS011;47228;46.762;23.598;2023-04-03T13:06:41;10.60;;;5.40;;
61358;SDS011;47228;46.762;23.598;2023-04-03T13:09:21;7.10;;;4.30;;
61358;SDS011;47228;46.762;23.598;2023-04-03T13:11:50;9.10;;;5.30;;
61358;SDS011;47228;46.762;23.598;2023-04-03T13:14:25;10.00;;;5.60;;
61358;SDS011;47228;46.762;23.598;2023-04-03T13:17:15;7.50;;;4.60;;
61358;SDS011;47228;46.762;23.598;2023-04-03T13:19:44;10.40;;;4.90;;
61358;SDS011;47228;46.762;23.598;2023-04-03T13:24:49;5.50;;;3.70;;
61358;SDS011;47228;46.762;23.598;2023-04-03T13:27:19;9.20;;;4.90;;
61358;SDS011;47228;46.762;23.598;2023-04-03T13:29:51;10.00;;;5.70;;
61358;SDS011;47228;46.762;23.598;2023-04-03T13:34:51;10.40;;;5.30;;
61358;SDS011;47228;46.762;23.598;2023-04-03T13:37:24;7.70;;;4.50;;
61358;SDS011;47228;46.762;23.598;2023-04-03T13:42:35;9.10;;;4.20;;
61358;SDS011;47228;46.762;23.598;2023-04-03T13:45:21;5.90;;;3.80;;
61358;SDS011;47228;46.762;23.598;2023-04-03T13:48:06;5.90;;;3.70;;
61358;SDS011;47228;46.762;23.598;2023-04-03T13:50:58;7.70;;;3.80;;
61358;SDS011;47228;46.762;23.598;2023-04-03T13:53:32;8.20;;;4.00;;
61358;SDS011;47228;46.762;23.598;2023-04-03T13:56:07;6.70;;;3.30;;
61358;SDS011;47228;46.762;23.598;2023-04-03T13:58:37;5.70;;;3.60;;
61358;SDS011;47228;46.762;23.598;2023-04-03T14:01:10;8.20;;;3.80;;
61358;SDS011;47228;46.762;23.598;2023-04-03T14:03:46;6.50;;;3.50;;
61358;SDS011;47228;46.762;23.598;2023-04-03T14:06:25;5.20;;;3.30;;
61358;SDS011;47228;46.762;23.598;2023-04-03T14:08:54;6.80;;;4.00;;
61358;SDS011;47228;46.762;23.598;2023-04-03T14:11:23;6.60;;;4.00;;
61358;SDS011;47228;46.762;23.598;2023-04-03T14:13:55;6.30;;;4.50;;
61358;SDS011;47228;46.762;23.598;2023-04-03T14:16:38;5.10;;;3.60;;
61358;SDS011;47228;46.762;23.598;2023-04-03T14:19:19;11.80;;;3.60;;
61358;SDS011;47228;46.762;23.598;2023-04-03T14:21:55;9.20;;;3.80;;
61358;SDS011;47228;46.762;23.598;2023-04-03T14:24:25;6.60;;;4.10;;
61358;SDS011;47228;46.762;23.598;2023-04-03T14:26:55;4.70;;;2.90;;
61358;SDS011;47228;46.762;23.598;2023-04-03T14:29:23;7.80;;;3.10;;
61358;SDS011;47228;46.762;23.598;2023-04-03T14:31:52;5.30;;;3.40;;
61358;SDS011;47228;46.762;23.598;2023-04-03T14:34:40;5.20;;;3.40;;
61358;SDS011;47228;46.762;23.598;2023-04-03T14:37:13;5.30;;;2.90;;
61358;SDS011;47228;46.762;23.598;2023-04-03T14:39:45;3.70;;;2.90;;
61358;SDS011;47228;46.762;23.598;2023-04-03T14:42:15;5.50;;;3.50;;
61358;SDS011;47228;46.762;23.598;2023-04-03T14:44:47;4.60;;;3.00;;
61358;SDS011;47228;46.762;23.598;2023-04-03T14:47:17;3.60;;;2.80;;
61358;SDS011;47228;46.762;23.598;2023-04-03T14:49:59;5.10;;;3.10;;
61358;SDS011;47228;46.762;23.598;2023-04-03T14:52:33;7.00;;;3.50;;
61358;SDS011;47228;46.762;23.598;2023-04-03T14:57:32;5.90;;;3.60;;
61358;SDS011;47228;46.762;23.598;2023-04-03T15:00:01;5.30;;;3.30;;
61358;SDS011;47228;46.762;23.598;2023-04-03T15:02:32;3.80;;;2.60;;
61358;SDS011;47228;46.762;23.598;2023-04-03T15:05:06;6.00;;;3.10;;
61358;SDS011;47228;46.762;23.598;2023-04-03T15:10:21;6.90;;;3.10;;
61358;SDS011;47228;46.762;23.598;2023-04-03T15:12:55;4.90;;;3.00;;
61358;SDS011;47228;46.762;23.598;2023-04-03T15:15:24;4.80;;;2.70;;
61358;SDS011;47228;46.762;23.598;2023-04-03T15:17:56;2.80;;;2.30;;
61358;SDS011;47228;46.762;23.598;2023-04-03T15:20:27;5.70;;;2.70;;
61358;SDS011;47228;46.762;23.598;2023-04-03T15:22:58;4.80;;;2.80;;
61358;SDS011;47228;46.762;23.598;2023-04-03T15:25:32;4.10;;;2.50;;
61358;SDS011;47228;46.762;23.598;2023-04-03T15:28:00;5.80;;;2.70;;
61358;SDS011;47228;46.762;23.598;2023-04-03T15:30:28;4.80;;;2.60;;
61358;SDS011;47228;46.762;23.598;2023-04-03T15:32:56;3.10;;;2.40;;
61358;SDS011;47228;46.762;23.598;2023-04-03T15:35:24;5.40;;;2.70;;
61358;SDS011;47228;46.762;23.598;2023-04-03T15:37:52;3.70;;;2.70;;
61358;SDS011;47228;46.762;23.598;2023-04-03T15:40:20;5.20;;;2.80;;
61358;SDS011;47228;46.762;23.598;2023-04-03T15:42:48;5.10;;;2.90;;
61358;SDS011;47228;46.762;23.598;2023-04-03T15:45:19;5.40;;;2.60;;
61358;SDS011;47228;46.762;23.598;2023-04-03T15:47:48;5.60;;;2.90;;
61358;SDS011;47228;46.762;23.598;2023-04-03T15:50:17;4.40;;;2.90;;
61358;SDS011;47228;46.762;23.598;2023-04-03T15:52:45;5.10;;;2.70;;
61358;SDS011;47228;46.762;23.598;2023-04-03T15:55:13;6.20;;;2.70;;
61358;SDS011;47228;46.762;23.598;2023-04-03T15:57:41;4.20;;;2.70;;
61358;SDS011;47228;46.762;23.598;2023-04-03T16:00:09;5.50;;;2.80;;
61358;SDS011;47228;46.762;23.598;2023-04-03T16:02:38;6.50;;;2.80;;
61358;SDS011;47228;46.762;23.598;2023-04-03T16:05:08;5.50;;;3.30;;
61358;SDS011;47228;46.762;23.598;2023-04-03T16:07:38;6.10;;;2.80;;
61358;SDS011;47228;46.762;23.598;2023-04-03T16:10:07;5.10;;;2.70;;
61358;SDS011;47228;46.762;23.598;2023-04-03T16:12:36;4.80;;;3.00;;
61358;SDS011;47228;46.762;23.598;2023-04-03T16:15:05;6.10;;;3.10;;
61358;SDS011;47228;46.762;23.598;2023-04-03T16:17:34;4.40;;;3.10;;
61358;SDS011;47228;46.762;23.598;2023-04-03T16:20:04;6.30;;;2.70;;
61358;SDS011;47228;46.762;23.598;2023-04-03T16:22:34;6.90;;;2.90;;
61358;SDS011;47228;46.762;23.598;2023-04-03T16:25:03;3.70;;;2.50;;
61358;SDS011;47228;46.762;23.598;2023-04-03T16:27:33;6.20;;;2.80;;
61358;SDS011;47228;46.762;23.598;2023-04-03T16:30:01;5.80;;;3.20;;
61358;SDS011;47228;46.762;23.598;2023-04-03T16:32:30;5.10;;;2.90;;
61358;SDS011;47228;46.762;23.598;2023-04-03T16:34:58;5.40;;;3.10;;
61358;SDS011;47228;46.762;23.598;2023-04-03T16:37:28;7.20;;;3.20;;
61358;SDS011;47228;46.762;23.598;2023-04-03T16:39:59;8.30;;;2.70;;
61358;SDS011;47228;46.762;23.598;2023-04-03T16:42:27;5.90;;;2.90;;
61358;SDS011;47228;46.762;23.598;2023-04-03T16:44:55;4.90;;;2.90;;
61358;SDS011;47228;46.762;23.598;2023-04-03T16:47:23;4.80;;;2.90;;
61358;SDS011;47228;46.762;23.598;2023-04-03T16:49:51;5.90;;;3.10;;
61358;SDS011;47228;46.762;23.598;2023-04-03T16:52:19;4.80;;;3.50;;
61358;SDS011;47228;46.762;23.598;2023-04-03T16:54:47;3.30;;;2.30;;